Time;durP1;ratioP1;P1;durP2;ratioP2;P2;SDS_P1;SDS_P2;PMS_P1;PMS_P2;Temp;Humidity;BMP_temperature;BMP_pressure;BME280_temperature;BME280_humidity;BME280_pressure;Samples;Min_cycle;Max_cycle;Signal;HPM_P1;HPM_P2
2022/01/06 00:00:45;;;;;;;;;6.33;3.67;;;;;4.06;72.81;98695.50;6315035;20;3459677;-43
2022/01/06 00:03:13;;;;;;;;;2.00;2.00;;;;;3.96;72.29;98700.41;6317459;20;3456491;-43
2022/01/06 00:05:41;;;;;;;;;6.00;2.00;;;;;4.07;72.47;98698.06;6316349;20;2754424;-42
2022/01/06 00:08:09;;;;;;;;;4.00;3.00;;;;;4.10;71.91;98713.00;6331431;20;1814597;-43
2022/01/06 00:10:38;;;;;;;;;3.00;3.00;;;;;3.91;72.42;98718.38;6332968;20;1813866;-43
2022/01/06 00:13:12;;;;;;;;;2.75;2.00;;;;;4.03;72.62;98728.41;6332300;20;1816975;-44
2022/01/06 00:23:43;;;;;;;;;4.25;2.75;;;;;4.03;72.13;98733.72;6333760;20;1813854;-43
2022/01/06 00:26:11;;;;;;;;;2.00;2.00;;;;;4.18;71.91;98737.38;6316667;20;3456674;-44
2022/01/06 00:28:39;;;;;;;;;3.00;2.00;;;;;4.02;72.11;98737.28;6313595;20;3449230;-43
2022/01/06 00:31:07;;;;;;;;;6.25;2.00;;;;;4.02;71.33;98739.94;6332015;20;1811774;-44
2022/01/06 00:33:36;;;;;;;;;3.00;3.00;;;;;3.91;72.54;98744.94;6334402;20;1822252;-42
2022/01/06 00:36:04;;;;;;;;;7.50;5.00;;;;;3.92;72.57;98743.97;6314544;20;2749209;-44
2022/01/06 00:38:33;;;;;;;;;2.00;1.75;;;;;4.00;72.10;98739.16;6300034;20;1820151;-43
2022/01/06 00:41:01;;;;;;;;;4.50;3.00;;;;;3.85;72.38;98734.63;6332345;20;1810735;-42
2022/01/06 00:43:29;;;;;;;;;4.00;4.00;;;;;4.05;72.22;98725.63;6315783;20;3468981;-43
2022/01/06 00:46:00;;;;;;;;;6.00;2.00;;;;;3.92;71.92;98726.28;6326636;20;2583616;-44
2022/01/06 00:48:29;;;;;;;;;5.50;2.50;;;;;3.98;71.86;98719.78;6330948;20;1815915;-43
2022/01/06 00:50:57;;;;;;;;;4.67;2.00;;;;;3.96;72.69;98722.50;6313739;20;3451326;-44
2022/01/06 00:53:25;;;;;;;;;7.00;2.00;;;;;3.99;71.79;98721.50;6314442;20;2750276;-43
2022/01/06 00:55:52;;;;;;;;;5.33;3.00;;;;;3.93;72.70;98716.50;6317431;20;3453378;-44
2022/01/06 00:58:21;;;;;;;;;2.00;2.00;;;;;3.84;72.66;98706.34;6334053;20;1820215;-45
2022/01/06 01:00:49;;;;;;;;;3.00;3.00;;;;;3.91;72.86;98702.44;6315511;20;3458639;-45
2022/01/06 01:03:22;;;;;;;;;3.00;2.75;;;;;3.83;73.47;98704.63;6300787;20;1825419;-45
2022/01/06 01:05:53;;;;;;;;;5.50;2.75;;;;;3.80;73.42;98704.78;6333634;20;1825259;-43
2022/01/06 01:08:25;;;;;;;;;7.00;3.00;;;;;3.89;73.81;98709.63;6331338;20;1821330;-44
2022/01/06 01:10:56;;;;;;;;;2.00;2.00;;;;;3.77;73.52;98699.63;6331333;20;1810840;-43
2022/01/06 01:13:29;;;;;;;;;4.50;2.00;;;;;3.95;73.59;98707.53;6331479;20;1820135;-45
2022/01/06 01:16:08;;;;;;;;;2.00;2.00;;;;;3.84;73.98;98711.63;6333959;20;1813340;-43
2022/01/06 01:18:44;;;;;;;;;3.25;2.25;;;;;3.78;73.68;98707.50;6330845;20;1821914;-42
2022/01/06 01:21:13;;;;;;;;;2.75;2.75;;;;;3.81;74.20;98706.50;6331914;20;1824367;-44
2022/01/06 01:23:42;;;;;;;;;3.00;3.00;;;;;3.73;73.58;98680.31;6330993;20;1821265;-45
2022/01/06 01:26:11;;;;;;;;;7.00;6.00;;;;;3.80;73.92;98676.44;6330959;20;1825389;-43
2022/01/06 01:28:44;;;;;;;;;5.50;5.50;;;;;3.78;73.56;98669.47;6330645;20;1823288;-43
2022/01/06 01:33:48;;;;;;;;;6.25;3.75;;;;;3.80;73.94;98668.47;6332045;20;1819101;-43
2022/01/06 01:36:16;;;;;;;;;5.00;2.50;;;;;3.72;73.83;98671.50;6334080;20;1818068;-43
2022/01/06 01:38:45;;;;;;;;;3.00;3.00;;;;;3.61;74.42;98681.81;6283560;20;3451392;-42
2022/01/06 01:41:13;;;;;;;;;2.00;2.00;;;;;3.77;74.32;98684.56;6332324;20;1819650;-42
2022/01/06 01:43:46;;;;;;;;;2.25;2.25;;;;;3.72;73.92;98697.19;6333725;20;1809692;-43
2022/01/06 01:46:17;;;;;;;;;2.00;2.00;;;;;3.63;74.29;98687.88;6313467;20;3452313;-43
2022/01/06 01:48:55;;;;;;;;;3.00;1.00;;;;;3.80;74.02;98700.31;6328014;20;1818074;-43
2022/01/06 01:51:23;;;;;;;;;9.50;4.25;;;;;3.82;74.00;98698.47;6327520;20;1816963;-43
2022/01/06 01:53:52;;;;;;;;;3.50;2.00;;;;;3.77;74.05;98694.31;6331959;20;1823290;-43
2022/01/06 01:56:20;;;;;;;;;3.67;2.00;;;;;3.83;73.79;98701.97;6315593;20;3447116;-44
2022/01/06 01:58:48;;;;;;;;;3.00;3.00;;;;;3.76;73.39;98701.41;6331546;20;1819883;-42
2022/01/06 02:01:17;;;;;;;;;3.00;3.00;;;;;3.83;73.13;98704.63;6326744;20;1820074;-43
2022/01/06 02:03:46;;;;;;;;;5.75;3.00;;;;;3.74;73.83;98690.88;6331827;20;1825454;-42
2022/01/06 02:06:14;;;;;;;;;5.00;3.00;;;;;3.80;73.74;98672.94;6330572;20;1817798;-43
2022/01/06 02:08:44;;;;;;;;;2.50;2.50;;;;;3.61;73.99;98657.06;6329989;20;1825411;-42
2022/01/06 02:11:12;;;;;;;;;7.00;3.00;;;;;3.74;75.01;98651.06;6330457;20;1825386;-42
2022/01/06 02:13:53;;;;;;;;;5.00;2.50;;;;;3.70;74.77;98648.63;6330219;20;1820132;-43
2022/01/06 02:16:25;;;;;;;;;2.33;2.33;;;;;3.64;74.51;98648.94;6310731;20;3456652;-43
2022/01/06 02:18:55;;;;;;;;;2.00;2.00;;;;;3.61;74.75;98665.88;6334106;20;1811647;-43
2022/01/06 02:21:23;;;;;;;;;4.75;2.00;;;;;3.60;75.59;98676.56;6329828;20;1815319;-43
2022/01/06 02:23:52;;;;;;;;;8.75;3.00;;;;;3.76;75.64;98688.13;6331214;20;1819209;-43
2022/01/06 02:26:21;;;;;;;;;3.00;3.00;;;;;3.73;75.51;98694.44;6328826;20;1807673;-42
2022/01/06 02:28:49;;;;;;;;;3.00;3.00;;;;;3.70;74.75;98699.91;6312154;20;2753399;-43
2022/01/06 02:31:18;;;;;;;;;4.50;2.00;;;;;3.73;74.22;98709.53;6326133;20;1815935;-44
2022/01/06 02:33:47;;;;;;;;;1.00;1.00;;;;;3.61;73.95;98702.19;6316514;20;3441933;-43
2022/01/06 02:36:15;;;;;;;;;6.50;2.00;;;;;3.57;74.69;98697.94;6335862;20;1823334;-43
2022/01/06 02:38:44;;;;;;;;;5.00;2.00;;;;;3.60;74.52;98682.72;6337281;20;1823294;-43
2022/01/06 02:41:13;;;;;;;;;2.00;2.00;;;;;3.61;74.50;98683.59;6333985;20;1813913;-44
2022/01/06 02:43:41;;;;;;;;;1.25;1.00;;;;;3.58;74.90;98671.34;6337269;20;1807596;-44
2022/01/06 02:46:09;;;;;;;;;2.00;2.00;;;;;3.59;74.56;98658.94;6320121;20;2739873;-43
2022/01/06 02:48:38;;;;;;;;;1.50;1.50;;;;;3.49;74.74;98653.22;6336159;20;1824326;-45
2022/01/06 02:51:06;;;;;;;;;3.00;3.00;;;;;3.47;75.43;98649.75;6334091;20;1823240;-45
2022/01/06 02:53:35;;;;;;;;;2.00;2.00;;;;;3.49;75.76;98638.13;6336066;20;1811719;-43
2022/01/06 02:56:04;;;;;;;;;2.50;2.50;;;;;3.50;75.75;98641.66;6333585;20;1822270;-44
2022/01/06 02:58:41;;;;;;;;;6.25;5.00;;;;;3.47;75.72;98633.84;6337456;20;1821720;-42
2022/01/06 03:01:10;;;;;;;;;3.50;3.00;;;;;3.51;75.61;98630.97;6330882;20;1825356;-43
2022/01/06 03:03:38;;;;;;;;;5.67;3.00;;;;;3.25;75.88;98644.66;6318688;20;3447138;-42
2022/01/06 03:06:06;;;;;;;;;2.00;2.00;;;;;3.45;75.88;98656.94;6317087;20;3459614;-42
2022/01/06 03:08:37;;;;;;;;;3.75;2.50;;;;;3.42;76.14;98665.06;6303276;20;1822376;-45
2022/01/06 03:11:07;;;;;;;;;2.00;2.00;;;;;3.48;75.08;98684.19;6333540;20;1825235;-42
2022/01/06 03:13:36;;;;;;;;;4.75;4.50;;;;;3.52;75.05;98695.50;6335406;20;1823335;-42
2022/01/06 03:16:04;;;;;;;;;1.00;1.00;;;;;3.55;74.65;98697.16;6319283;20;3448130;-42
2022/01/06 03:18:33;;;;;;;;;2.00;2.00;;;;;3.65;74.42;98698.44;6333962;20;1819208;-43
2022/01/06 03:21:01;;;;;;;;;2.00;2.00;;;;;3.59;74.29;98710.22;6332947;20;1819919;-43
2022/01/06 03:23:30;;;;;;;;;2.25;2.25;;;;;3.63;74.16;98719.72;6335438;20;1818007;-43
2022/01/06 03:25:59;;;;;;;;;2.00;2.00;;;;;3.67;73.96;98725.75;6332656;20;1822218;-44
2022/01/06 03:28:28;;;;;;;;;4.25;2.00;;;;;3.64;74.03;98740.03;6333284;20;1825350;-43
2022/01/06 03:30:57;;;;;;;;;3.33;3.33;;;;;3.57;74.82;98749.22;6338935;20;1815470;-43
2022/01/06 03:33:26;;;;;;;;;2.00;2.00;;;;;3.57;74.30;98751.88;6335079;20;1821200;-43
2022/01/06 03:35:55;;;;;;;;;4.75;4.00;;;;;3.67;74.55;98747.00;6334004;20;1823727;-44
2022/01/06 03:38:23;;;;;;;;;4.00;4.00;;;;;3.50;74.11;98750.44;6320148;20;2742973;-42
2022/01/06 03:40:51;;;;;;;;;5.00;1.75;;;;;3.65;74.22;98749.72;6333568;20;1811459;-45
2022/01/06 03:43:20;;;;;;;;;8.00;3.00;;;;;3.56;74.48;98744.00;6332677;20;1825400;-43
2022/01/06 03:45:49;;;;;;;;;4.50;2.00;;;;;3.66;74.29;98755.88;6332869;20;1816157;-42
2022/01/06 03:48:17;;;;;;;;;6.00;1.75;;;;;3.58;73.62;98752.72;6336539;20;1819713;-42
2022/01/06 03:50:45;;;;;;;;;2.00;2.00;;;;;3.57;74.20;98745.72;6316091;20;2752424;-42
2022/01/06 03:53:14;;;;;;;;;3.50;2.75;;;;;3.62;73.99;98755.19;6332985;20;1823265;-44
2022/01/06 03:55:42;;;;;;;;;3.00;3.00;;;;;3.80;73.55;98741.97;6335576;20;1811301;-44
2022/01/06 03:58:11;;;;;;;;;2.50;2.50;;;;;3.90;74.06;98732.59;6334101;20;1825390;-42
2022/01/06 04:00:39;;;;;;;;;3.67;3.00;;;;;3.68;74.32;98733.63;6315019;20;3470061;-43
2022/01/06 04:03:07;;;;;;;;;4.50;4.25;;;;;3.66;74.47;98732.88;6303573;20;1815733;-45
2022/01/06 04:05:36;;;;;;;;;7.75;4.50;;;;;3.76;74.67;98735.06;6332382;20;1823300;-43
2022/01/06 04:08:04;;;;;;;;;3.00;3.00;;;;;3.60;73.78;98730.50;6316172;20;2752349;-43
2022/01/06 04:10:35;;;;;;;;;0.00;0.00;;;;;3.54;73.84;98725.50;6353681;20;2694029;-44
2022/01/06 04:13:03;;;;;;;;;5.00;4.00;;;;;3.58;74.41;98724.44;6302329;20;1825241;-43
2022/01/06 04:15:31;;;;;;;;;2.00;2.00;;;;;3.45;74.58;98731.22;6316117;20;3463766;-43
2022/01/06 04:18:00;;;;;;;;;5.00;2.50;;;;;3.67;73.97;98731.94;6331340;20;1820166;-44
2022/01/06 04:20:27;;;;;;;;;2.67;2.67;;;;;3.56;74.41;98733.41;6314008;20;3467962;-46
2022/01/06 04:22:56;;;;;;;;;5.00;2.25;;;;;3.64;74.22;98736.53;6304398;20;1811837;-43
2022/01/06 04:25:25;;;;;;;;;4.00;4.00;;;;;3.55;73.96;98743.13;6333445;20;1825546;-44
2022/01/06 04:27:53;;;;;;;;;3.33;2.00;;;;;3.56;74.26;98747.53;6314165;20;3463307;-44
2022/01/06 04:30:20;;;;;;;;;5.00;5.00;;;;;3.49;74.40;98759.34;6283869;20;2756493;-43
2022/01/06 04:32:49;;;;;;;;;2.75;2.00;;;;;3.59;74.55;98760.63;6335567;20;1815999;-42
2022/01/06 04:35:17;;;;;;;;;7.00;7.00;;;;;3.63;74.50;98767.50;6317544;20;2750287;-43
2022/01/06 04:37:45;;;;;;;;;5.75;4.00;;;;;3.59;74.06;98765.09;6332922;20;1812221;-43
2022/01/06 04:40:13;;;;;;;;;4.33;2.33;;;;;3.69;74.20;98761.91;6315201;20;3454536;-43
2022/01/06 04:42:41;;;;;;;;;10.00;5.00;;;;;3.50;73.79;98771.69;6316115;20;2762768;-43
2022/01/06 04:45:09;;;;;;;;;2.00;1.00;;;;;3.63;74.17;98774.59;6286232;20;3440897;-43
2022/01/06 04:47:38;;;;;;;;;5.25;3.00;;;;;3.52;74.24;98772.47;6333251;20;1820143;-43
2022/01/06 04:50:06;;;;;;;;;10.67;4.33;;;;;3.60;74.75;98775.63;6313722;20;3475384;-43
2022/01/06 04:52:35;;;;;;;;;4.00;3.00;;;;;3.47;74.94;98772.69;6284099;20;2744073;-44
2022/01/06 04:55:06;;;;;;;;;1.75;1.75;;;;;3.59;74.57;98778.34;6333579;20;1816462;-43
2022/01/06 04:57:35;;;;;;;;;5.00;2.50;;;;;3.56;75.08;98776.72;6330185;20;1811788;-44
2022/01/06 05:00:06;;;;;;;;;5.00;3.00;;;;;3.56;75.19;98786.47;6316111;20;2756632;-43
2022/01/06 05:02:35;;;;;;;;;2.00;1.00;;;;;3.52;74.93;98791.03;6314650;20;3445092;-44
2022/01/06 05:05:05;;;;;;;;;3.75;3.00;;;;;3.52;75.08;98791.03;6332315;20;1812834;-43
2022/01/06 05:07:33;;;;;;;;;1.67;1.67;;;;;3.50;75.41;98808.81;6316793;20;3454396;-44
2022/01/06 05:10:00;;;;;;;;;6.00;4.00;;;;;3.55;75.44;98803.31;6313544;20;2743999;-44
2022/01/06 05:12:30;;;;;;;;;6.00;6.00;;;;;3.57;75.48;98799.66;6334412;20;1819107;-43
2022/01/06 05:14:59;;;;;;;;;6.00;6.00;;;;;3.42;75.48;98800.38;6300080;20;1820162;-44
2022/01/06 05:17:28;;;;;;;;;6.00;4.50;;;;;3.39;75.26;98801.38;6329443;20;1823312;-43
2022/01/06 05:19:56;;;;;;;;;5.33;4.00;;;;;3.53;75.79;98806.06;6311918;20;3464223;-43
2022/01/06 05:22:25;;;;;;;;;8.00;5.00;;;;;3.49;75.28;98812.44;6299804;20;1819081;-44
2022/01/06 05:24:54;;;;;;;;;5.00;5.00;;;;;3.50;75.34;98814.13;6332096;20;1813874;-44
2022/01/06 05:27:23;;;;;;;;;13.25;9.75;;;;;3.41;75.74;98818.09;6299106;20;1812701;-43
2022/01/06 05:29:52;;;;;;;;;5.25;2.50;;;;;3.60;75.06;98825.19;6331597;20;1814623;-42
2022/01/06 05:32:20;;;;;;;;;3.50;3.50;;;;;3.79;77.23;98819.88;6330962;20;1817846;-43
2022/01/06 05:34:48;;;;;;;;;6.00;5.00;;;;;3.70;76.31;98827.34;6311916;20;2756682;-44
2022/01/06 05:37:17;;;;;;;;;5.00;3.50;;;;;3.73;75.82;98819.22;6298989;20;1821251;-43
2022/01/06 05:39:44;;;;;;;;;9.67;9.00;;;;;3.77;75.66;98827.06;6314412;20;3467933;-44
2022/01/06 05:42:13;;;;;;;;;14.00;12.67;;;;;3.57;76.45;98836.81;6280307;20;3531515;-43
2022/01/06 05:44:42;;;;;;;;;12.00;9.00;;;;;3.59;75.70;98840.25;6313028;20;2774226;-43
2022/01/06 05:47:10;;;;;;;;;6.00;5.00;;;;;3.62;75.62;98845.41;6281466;20;3460724;-43
2022/01/06 05:49:38;;;;;;;;;2.25;2.00;;;;;3.63;76.40;98844.47;6299200;20;1822037;-44
2022/01/06 05:52:06;;;;;;;;;1.00;0.00;;;;;3.41;76.13;98843.75;6312508;20;3439893;-43
2022/01/06 05:54:34;;;;;;;;;5.00;5.00;;;;;3.55;76.30;98843.13;6280811;20;2750501;-43
2022/01/06 05:57:08;;;;;;;;;6.50;6.00;;;;;3.54;76.33;98836.97;6328927;20;1814852;-43
2022/01/06 05:59:36;;;;;;;;;10.00;7.00;;;;;3.60;76.10;98863.19;6312775;20;2763819;-42
2022/01/06 06:02:05;;;;;;;;;5.50;5.00;;;;;3.49;76.46;98876.13;6283750;20;2745042;-44
2022/01/06 06:04:34;;;;;;;;;8.75;8.00;;;;;3.55;75.84;98864.34;6330685;20;1821236;-44
2022/01/06 06:07:04;;;;;;;;;2.00;2.00;;;;;3.59;75.74;98873.91;6332538;20;1814871;-45
2022/01/06 06:09:32;;;;;;;;;5.00;2.50;;;;;3.65;75.72;98882.44;6335402;20;1821213;-42
2022/01/06 06:12:01;;;;;;;;;4.50;4.50;;;;;3.61;75.15;98880.00;6338007;20;1825501;-43
2022/01/06 06:14:30;;;;;;;;;1.00;1.00;;;;;3.71;75.04;98871.56;6335993;20;1811756;-43
2022/01/06 06:16:58;;;;;;;;;4.00;4.00;;;;;3.67;75.49;98891.19;6336776;20;1821182;-43
2022/01/06 06:19:27;;;;;;;;;8.00;5.75;;;;;3.52;76.06;98892.75;6336304;20;1819484;-43
2022/01/06 06:21:56;;;;;;;;;2.75;2.75;;;;;3.55;75.79;98891.75;6334937;20;1821209;-43
2022/01/06 06:24:24;;;;;;;;;5.75;2.50;;;;;3.62;76.20;98885.22;6337062;20;1820153;-44
2022/01/06 06:26:52;;;;;;;;;7.00;6.00;;;;;3.61;75.69;98904.75;6317744;20;2750684;-43
2022/01/06 06:29:21;;;;;;;;;6.00;4.50;;;;;3.59;76.26;98893.34;6337060;20;1823333;-43
2022/01/06 06:31:50;;;;;;;;;5.50;5.50;;;;;3.63;76.29;98904.66;6332277;20;1810705;-43
2022/01/06 06:34:18;;;;;;;;;10.00;7.00;;;;;3.56;76.26;98909.41;6318833;20;2769022;-45
2022/01/06 06:36:47;;;;;;;;;7.00;6.25;;;;;3.55;76.35;98923.59;6301927;20;1816000;-43
2022/01/06 06:39:15;;;;;;;;;6.75;6.25;;;;;3.56;76.08;98920.03;6336489;20;1821123;-43
2022/01/06 06:41:44;;;;;;;;;6.75;3.00;;;;;3.52;76.29;98918.44;6332605;20;1815947;-45
2022/01/06 06:44:12;;;;;;;;;3.00;3.00;;;;;3.45;76.52;98911.66;6335254;20;1819145;-46
2022/01/06 06:46:41;;;;;;;;;2.00;2.00;;;;;3.48;77.36;98924.81;6334809;20;1821164;-42
2022/01/06 06:49:09;;;;;;;;;5.00;4.00;;;;;3.57;77.22;98921.75;6319008;20;2741015;-43
2022/01/06 06:51:38;;;;;;;;;8.25;5.75;;;;;3.74;76.18;98940.44;6333060;20;1825343;-44
2022/01/06 06:54:09;;;;;;;;;8.50;6.00;;;;;3.64;77.13;98944.44;6320025;20;2748259;-44
2022/01/06 06:56:36;;;;;;;;;12.50;10.50;;;;;3.52;76.65;98945.81;6315098;20;2787769;-44
2022/01/06 06:59:04;;;;;;;;;9.50;8.00;;;;;3.68;76.90;98948.66;6289230;20;2750255;-45
2022/01/06 07:01:32;;;;;;;;;6.50;5.50;;;;;3.62;76.89;98938.31;6283892;20;2752386;-46
2022/01/06 07:04:01;;;;;;;;;5.25;3.75;;;;;3.54;76.87;98929.84;6304831;20;1825345;-45
2022/01/06 07:06:28;;;;;;;;;9.50;6.50;;;;;3.68;77.07;98932.72;6316809;20;2748173;-43
2022/01/06 07:08:57;;;;;;;;;7.25;5.50;;;;;3.74;76.11;98929.81;6337282;20;1813920;-43
2022/01/06 07:11:25;;;;;;;;;8.50;8.00;;;;;3.63;76.30;98937.38;6313408;20;2748178;-44
2022/01/06 07:13:54;;;;;;;;;11.50;10.00;;;;;3.69;76.37;98944.22;6301625;20;1823322;-43
2022/01/06 07:16:21;;;;;;;;;2.00;2.00;;;;;3.78;76.41;98940.28;6317432;20;3456509;-43
2022/01/06 07:18:50;;;;;;;;;6.00;4.50;;;;;3.88;75.99;98941.59;6329563;20;1821255;-45
2022/01/06 07:21:18;;;;;;;;;15.00;6.00;;;;;3.84;76.17;98945.28;6313396;20;2770088;-43
2022/01/06 07:23:49;;;;;;;;;9.00;6.25;;;;;3.85;76.95;98941.72;6305651;20;1820071;-44
2022/01/06 07:26:19;;;;;;;;;6.25;5.00;;;;;3.87;76.14;98955.78;6336158;20;1821189;-43
2022/01/06 07:28:47;;;;;;;;;6.00;6.00;;;;;3.93;76.68;98951.06;6317978;20;2746171;-43
2022/01/06 07:31:16;;;;;;;;;4.25;4.25;;;;;4.09;77.27;98966.28;6333606;20;1816014;-43
2022/01/06 07:33:44;;;;;;;;;4.00;4.00;;;;;4.01;76.90;98969.28;6334352;20;1814875;-43
2022/01/06 07:36:13;;;;;;;;;6.50;4.25;;;;;3.93;77.14;98964.34;6333994;20;1823423;-45
2022/01/06 07:38:40;;;;;;;;;4.00;4.00;;;;;4.13;77.99;98979.34;6317734;20;2748204;-44
2022/01/06 07:41:09;;;;;;;;;5.00;5.00;;;;;4.19;76.85;98986.16;6333381;20;1820200;-44
2022/01/06 07:43:37;;;;;;;;;4.75;4.75;;;;;4.09;78.12;98979.56;6334369;20;1810726;-44
2022/01/06 07:46:07;;;;;;;;;4.00;4.00;;;;;4.31;76.86;98992.69;6334980;20;1811839;-45
2022/01/06 07:49:18;;;;;;;;;3.00;3.00;;;;;4.65;76.40;98991.94;6334914;20;1825414;-44
2022/01/06 07:51:30;;;;;;;;;4.50;4.00;;;;;4.29;76.22;98990.13;6329761;20;1821035;-43
2022/01/06 07:54:00;;;;;;;;;7.00;5.00;;;;;4.23;76.28;99000.16;6315798;20;2753507;-45
2022/01/06 07:56:30;;;;;;;;;8.00;5.00;;;;;4.30;75.81;99012.25;6324854;20;1808770;-42
2022/01/06 07:58:58;;;;;;;;;6.00;5.00;;;;;4.09;76.36;99009.63;6288402;20;2746140;-43
2022/01/06 08:01:26;;;;;;;;;6.00;6.00;;;;;4.32;77.21;99013.88;6314948;20;2748395;-45
2022/01/06 08:03:55;;;;;;;;;9.75;7.50;;;;;4.26;76.37;99019.47;6333273;20;1819262;-44
2022/01/06 08:06:24;;;;;;;;;6.00;4.75;;;;;4.50;76.27;99028.13;6332474;20;1817012;-43
2022/01/06 08:08:52;;;;;;;;;9.00;6.00;;;;;4.40;76.18;99029.47;6317847;20;2747233;-43
2022/01/06 08:11:19;;;;;;;;;10.50;9.00;;;;;4.45;76.96;99027.47;6313364;20;2768993;-44
2022/01/06 08:13:50;;;;;;;;;12.00;10.00;;;;;4.51;76.99;99039.59;6280001;20;2779480;-45
2022/01/06 08:16:17;;;;;;;;;5.33;4.00;;;;;4.50;75.78;99038.75;6288324;20;3456477;-42
2022/01/06 08:18:45;;;;;;;;;9.00;6.00;;;;;4.83;74.76;99043.38;6316157;20;2743058;-42
2022/01/06 08:21:13;;;;;;;;;13.00;9.50;;;;;4.80;74.78;99038.22;6311277;20;2781550;-44
2022/01/06 08:23:41;;;;;;;;;6.00;6.00;;;;;4.77;74.17;99049.00;6288448;20;3456565;-42
2022/01/06 08:26:13;;;;;;;;;10.00;10.00;;;;;4.79;75.46;99050.66;6314214;20;2783664;-43
2022/01/06 08:28:45;;;;;;;;;6.33;5.00;;;;;4.67;75.28;99047.72;6287567;20;3451315;-43
2022/01/06 08:31:14;;;;;;;;;12.50;6.00;;;;;4.69;75.88;99048.50;6280339;20;2769119;-42
2022/01/06 08:33:46;;;;;;;;;12.83;10.67;;;;;4.52;76.26;99052.81;6323773;20;1804523;-43
2022/01/06 08:36:15;;;;;;;;;5.50;5.50;;;;;4.54;75.83;99056.25;6331333;20;1819154;-43
2022/01/06 08:38:46;;;;;;;;;20.50;16.17;;;;;4.48;75.62;99069.84;6337168;20;2820105;-43
2022/01/06 08:41:14;;;;;;;;;12.00;9.00;;;;;4.65;76.50;99073.50;6313206;20;2764827;-43
2022/01/06 08:43:46;;;;;;;;;19.67;16.67;;;;;4.70;75.95;99064.38;6281973;20;3579405;-45
2022/01/06 08:46:15;;;;;;;;;13.67;11.00;;;;;4.87;76.40;99070.66;6281496;20;3512831;-42
2022/01/06 08:48:44;;;;;;;;;5.50;5.50;;;;;4.91;76.49;99066.94;6332674;20;1815938;-43
2022/01/06 08:51:12;;;;;;;;;10.00;9.00;;;;;4.78;76.13;99069.31;6329924;20;1820186;-43
2022/01/06 08:53:40;;;;;;;;;12.00;9.00;;;;;4.77;75.79;99060.50;6313109;20;2769035;-43
2022/01/06 08:56:10;;;;;;;;;42.33;30.33;;;;;4.76;75.77;99073.84;6283679;20;3638856;-44
2022/01/06 08:58:39;;;;;;;;;34.50;31.50;;;;;4.82;75.83;99057.63;6313548;20;2850295;-43
2022/01/06 09:01:07;;;;;;;;;31.50;30.50;;;;;4.91;75.80;99067.78;6279889;20;2508597;-42
2022/01/06 09:03:35;;;;;;;;;23.67;20.67;;;;;4.97;75.05;99078.13;6283307;20;3575287;-46
2022/01/06 09:06:05;;;;;;;;;48.33;41.67;;;;;4.87;75.14;99082.19;6315605;20;2861824;-43
2022/01/06 09:08:33;;;;;;;;;10.50;7.00;;;;;5.31;74.34;99081.78;6314902;20;2763911;-44
2022/01/06 09:11:02;;;;;;;;;12.60;10.00;;;;;5.32;75.68;99088.88;6305508;20;2764867;-44
2022/01/06 09:13:30;;;;;;;;;12.00;10.00;;;;;5.11;74.33;99082.81;6281785;20;2786744;-43
2022/01/06 09:16:08;;;;;;;;;14.33;11.00;;;;;5.32;74.06;99083.53;6282931;20;2793057;-43
2022/01/06 09:18:38;;;;;;;;;17.50;12.00;;;;;5.55;74.05;99093.00;6310424;20;2792995;-42
2022/01/06 09:21:09;;;;;;;;;27.00;24.00;;;;;5.89;72.96;99096.63;6279985;20;3589816;-41
2022/01/06 09:23:38;;;;;;;;;19.00;17.00;;;;;5.64;73.46;99094.38;6285185;20;3551265;-42
2022/01/06 09:26:06;;;;;;;;;24.50;19.50;;;;;5.87;73.10;99086.06;6282876;20;2500246;-42
2022/01/06 09:28:38;;;;;;;;;22.00;18.50;;;;;5.67;73.88;99089.72;6284850;20;2500268;-45
2022/01/06 09:31:06;;;;;;;;;41.50;34.00;;;;;5.41;72.92;99092.84;6281991;20;2500230;-45
2022/01/06 09:33:34;;;;;;;;;24.50;8.50;;;;;5.32;73.16;99085.31;6281760;20;2804441;-42
2022/01/06 09:36:02;;;;;;;;;34.50;25.00;;;;;5.41;74.46;99083.06;6284454;20;2500327;-44
2022/01/06 09:38:30;;;;;;;;;6.50;3.50;;;;;5.39;73.95;99089.41;6286834;20;2750332;-44
2022/01/06 09:41:05;;;;;;;;;20.50;16.00;;;;;5.53;75.75;99094.91;6284149;20;2829549;-43
2022/01/06 09:43:37;;;;;;;;;16.00;15.00;;;;;5.19;74.37;99088.59;6282242;20;2808618;-42
2022/01/06 09:46:09;;;;;;;;;4.50;4.50;;;;;5.35;74.03;99094.03;6306854;20;1817637;-44
2022/01/06 09:48:40;;;;;;;;;11.00;10.00;;;;;5.27;74.08;99096.22;6316504;20;2773184;-44
2022/01/06 09:51:10;;;;;;;;;12.00;8.50;;;;;5.47;73.41;99103.19;6285256;20;2760722;-43
2022/01/06 09:53:38;;;;;;;;;10.50;6.00;;;;;5.56;75.01;99101.88;6283689;20;2757602;-42
2022/01/06 09:56:10;;;;;;;;;6.00;6.00;;;;;5.44;74.97;99106.88;6305621;20;1818018;-43
2022/01/06 09:58:39;;;;;;;;;8.00;7.00;;;;;5.18;73.76;99110.81;6333377;20;1809694;-43
2022/01/06 10:01:08;;;;;;;;;8.50;8.00;;;;;5.18;73.69;99110.81;6330541;20;1811846;-45
2022/01/06 10:03:45;;;;;;;;;10.75;2.50;;;;;5.39;73.51;99122.19;6332934;20;1808694;-44
2022/01/06 10:06:28;;;;;;;;;11.50;7.25;;;;;5.42;74.01;99121.19;6332017;20;1805579;-44
2022/01/06 10:09:02;;;;;;;;;8.25;8.25;;;;;5.25;74.28;99122.03;6335585;20;1808754;-43
2022/01/06 10:11:36;;;;;;;;;3.00;1.75;;;;;5.34;74.08;99132.22;6331535;20;1819143;-43
2022/01/06 10:14:11;;;;;;;;;7.00;6.00;;;;;5.19;74.47;99136.50;6318737;20;2741952;-43
2022/01/06 10:16:45;;;;;;;;;6.00;6.00;;;;;5.15;73.66;99144.69;6303711;20;1804623;-43
2022/01/06 10:19:15;;;;;;;;;11.50;8.00;;;;;5.42;73.74;99138.03;6313897;20;2774234;-43
2022/01/06 10:21:57;;;;;;;;;14.00;8.50;;;;;5.65;72.91;99149.34;6283716;20;2774279;-43
2022/01/06 10:24:30;;;;;;;;;17.00;13.50;;;;;6.00;72.53;99149.38;6281997;20;2795061;-43
2022/01/06 10:27:07;;;;;;;;;6.67;6.67;;;;;6.13;71.63;99153.13;6288095;20;3443976;-44
2022/01/06 10:29:50;;;;;;;;;9.00;7.00;;;;;6.44;71.36;99159.53;6285056;20;2749198;-45
2022/01/06 10:32:25;;;;;;;;;5.00;5.00;;;;;6.31;70.90;99164.63;6282583;20;2751295;-43
2022/01/06 10:35:02;;;;;;;;;14.50;8.00;;;;;6.25;71.62;99170.31;6282208;20;2783613;-43
2022/01/06 10:37:41;;;;;;;;;8.00;8.00;;;;;6.29;70.45;99162.06;6304129;20;1805506;-46
2022/01/06 10:40:27;;;;;;;;;10.50;8.00;;;;;6.10;71.60;99147.97;6311597;20;2754438;-43
2022/01/06 10:42:58;;;;;;;;;8.00;8.00;;;;;6.19;72.93;99147.50;6326014;20;1808635;-44
2022/01/06 10:45:30;;;;;;;;;10.00;10.00;;;;;6.13;71.21;99150.47;6282593;20;2780480;-44
2022/01/06 10:48:02;;;;;;;;;9.50;8.50;;;;;6.21;70.92;99147.41;6288834;20;2750246;-44
2022/01/06 10:50:42;;;;;;;;;14.20;12.40;;;;;6.21;70.39;99158.91;6309147;20;2786804;-43
2022/01/06 10:53:12;;;;;;;;;34.00;23.67;;;;;6.04;70.81;99157.16;6283751;20;3592922;-43
2022/01/06 10:55:46;;;;;;;;;7.33;6.33;;;;;6.36;70.38;99168.78;6288213;20;3451306;-43
2022/01/06 10:58:22;;;;;;;;;7.00;6.00;;;;;6.41;70.83;99157.03;6340100;20;1810897;-43
2022/01/06 11:01:01;;;;;;;;;3.00;3.00;;;;;6.13;70.08;99164.69;6322313;20;2749718;-43
2022/01/06 11:03:33;;;;;;;;;8.33;6.00;;;;;6.42;71.62;99158.75;6313766;20;1816020;-44
2022/01/06 11:06:04;;;;;;;;;9.00;6.00;;;;;6.26;69.91;99158.69;6322503;20;2762742;-43
2022/01/06 11:08:40;;;;;;;;;9.00;7.00;;;;;6.02;70.35;99159.03;6289284;20;2743992;-46
2022/01/06 11:13:49;;;;;;;;;20.00;13.00;;;;;6.50;72.40;99165.41;6322272;20;2798172;-44
2022/01/06 11:16:20;;;;;;;;;7.75;7.00;;;;;6.18;70.39;99163.56;6308364;20;1810763;-44
2022/01/06 11:18:58;;;;;;;;;10.60;6.80;;;;;5.93;70.95;99160.34;6343813;20;2755452;-44
2022/01/06 11:21:45;;;;;;;;;5.33;4.00;;;;;5.94;71.34;99167.41;6358728;20;1805503;-43
2022/01/06 11:24:17;;;;;;;;;8.75;8.00;;;;;6.02;70.74;99161.69;6305507;20;1807046;-43
2022/01/06 11:27:09;;;;;;;;;7.00;7.00;;;;;5.85;71.21;99165.19;6323179;20;2739326;-45
2022/01/06 11:29:43;;;;;;;;;8.00;7.00;;;;;6.25;72.52;99170.31;6322030;20;2730461;-44
2022/01/06 11:32:24;;;;;;;;;7.00;6.00;;;;;5.93;71.34;99176.34;6339060;20;1822387;-43
2022/01/06 11:35:08;;;;;;;;;11.50;6.00;;;;;6.03;71.86;99189.19;6320565;20;2758595;-45
2022/01/06 11:37:50;;;;;;;;;7.50;6.50;;;;;5.88;71.42;99185.47;6318315;20;2747137;-42
2022/01/06 11:40:35;;;;;;;;;6.00;6.00;;;;;5.73;71.86;99184.44;6291140;20;2747123;-43
2022/01/06 11:43:07;;;;;;;;;7.50;6.00;;;;;5.82;71.78;99183.09;6288155;20;2749238;-43
2022/01/06 11:45:35;;;;;;;;;6.00;6.00;;;;;5.65;72.18;99199.94;6289272;20;2747144;-45
2022/01/06 11:48:23;;;;;;;;;6.50;6.00;;;;;5.55;71.97;99211.97;6290715;20;2747225;-43